Time,TemperatureF,DewpointF,PressureIn,WindDirection,WindDirectionDegrees,WindSpeedMPH,WindSpeedGustMPH,Humidity,HourlyPrecipIn,Conditions,Clouds,dailyrainin,SolarRadiationWatts/m^2,SoftwareType,DateUTC
2013-06-23 00:02:00,59.5,55.6,29.82,NNW,340,0.0,0.0,87,0.00,,,0.00,0,WeatherCatV1.14B232,2013-06-23 07:02:00,
2013-06-23 00:07:00,59.3,55.4,29.82,NNW,340,0.0,0.0,87,0.00,,,0.00,0,WeatherCatV1.14B232,2013-06-23 07:07:00,
2013-06-23 00:12:00,59.2,55.6,29.82,NNW,340,0.0,0.0,88,0.00,,,0.00,0,WeatherCatV1.14B232,2013-06-23 07:12:00,
2013-06-23 00:17:00,59.0,55.4,29.81,NNW,340,0.0,0.0,88,0.00,,,0.00,0,WeatherCatV1.14B232,2013-06-23 07:17:00,
2013-06-23 00:22:00,58.9,55.3,29.81,NNW,340,0.0,0.0,88,0.00,,,0.00,0,WeatherCatV1.14B232,2013-06-23 07:22:00,
2013-06-23 00:27:00,58.7,55.5,29.81,NNW,340,0.0,0.0,89,0.00,,,0.00,0,WeatherCatV1.14B232,2013-06-23 07:27:00,
2013-06-23 00:32:00,58.6,55.4,29.81,NNW,340,0.0,0.0,89,0.00,,,0.00,0,WeatherCatV1.14B232,2013-06-23 07:32:00,
2013-06-23 00:37:00,58.4,55.2,29.81,NNW,340,0.0,0.0,89,0.00,,,0.00,0,WeatherCatV1.14B232,2013-06-23 07:37:00,
2013-06-23 00:42:00,58.3,55.1,29.81,NNW,340,0.0,0.0,89,0.00,,,0.00,0,WeatherCatV1.14B232,2013-06-23 07:42:00,
2013-06-23 00:47:00,58.1,54.9,29.81,NNW,340,0.0,0.0,89,0.00,,,0.00,0,WeatherCatV1.14B232,2013-06-23 07:47:00,
2013-06-23 00:52:00,58.0,55.1,29.81,NNW,340,0.0,0.0,90,0.00,,,0.00,0,WeatherCatV1.14B232,2013-06-23 07:52:00,
2013-06-23 00:57:00,58.0,55.1,29.81,NNW,340,0.0,0.0,90,0.00,,,0.00,0,WeatherCatV1.14B232,2013-06-23 07:57:00,
2013-06-23 01:02:00,57.8,54.9,29.81,NNW,340,0.0,0.0,90,0.00,,,0.00,0,WeatherCatV1.14B232,2013-06-23 08:02:00,
2013-06-23 01:07:00,57.6,54.7,29.81,NNW,340,0.0,0.0,90,0.00,,,0.00,0,WeatherCatV1.14B232,2013-06-23 08:07:00,
2013-06-23 01:12:00,57.5,54.6,29.81,NNW,340,0.0,0.0,90,0.00,,,0.00,0,WeatherCatV1.14B232,2013-06-23 08:12:00,
2013-06-23 01:17:00,57.3,54.4,29.80,NNW,340,0.0,0.0,90,0.00,,,0.00,0,WeatherCatV1.14B232,2013-06-23 08:17:00,
2013-06-23 01:22:00,57.3,54.7,29.80,NNW,340,0.0,0.0,91,0.00,,,0.00,0,WeatherCatV1.14B232,2013-06-23 08:22:00,
2013-06-23 01:27:00,57.2,54.6,29.80,NNW,340,0.0,0.0,91,0.00,,,0.00,0,WeatherCatV1.14B232,2013-06-23 08:27:00,
2013-06-23 01:32:00,57.0,54.4,29.79,NNW,340,0.0,0.0,91,0.00,,,0.00,0,WeatherCatV1.14B232,2013-06-23 08:32:00,
2013-06-23 01:37:00,56.9,54.3,29.79,NNW,340,0.0,0.0,91,0.00,,,0.00,0,WeatherCatV1.14B232,2013-06-23 08:37:00,
2013-06-23 01:42:00,56.9,54.3,29.79,NNW,340,0.0,0.0,91,0.00,,,0.00,0,WeatherCatV1.14B232,2013-06-23 08:42:00,
2013-06-23 01:47:00,56.7,54.1,29.79,NNW,340,0.0,0.0,91,0.00,,,0.00,0,WeatherCatV1.14B232,2013-06-23 08:47:00,
2013-06-23 01:52:00,56.6,54.0,29.79,NNW,340,0.0,0.0,91,0.00,,,0.00,0,WeatherCatV1.14B232,2013-06-23 08:52:00,
2013-06-23 01:57:00,56.5,53.9,29.79,NNW,340,0.0,0.0,91,0.00,,,0.00,0,WeatherCatV1.14B232,2013-06-23 08:57:00,
2013-06-23 02:02:00,56.5,53.9,29.79,NNW,340,0.0,0.0,91,0.00,,,0.00,0,WeatherCatV1.14B232,2013-06-23 09:02:00,
2013-06-23 02:07:00,56.3,53.7,29.79,NNW,340,0.0,0.0,91,0.00,,,0.00,0,WeatherCatV1.14B232,2013-06-23 09:07:00,
2013-06-23 02:12:00,56.2,53.6,29.79,NNW,340,0.0,0.0,91,0.00,,,0.00,0,WeatherCatV1.14B232,2013-06-23 09:12:00,
2013-06-23 02:17:00,56.0,53.4,29.78,NNW,340,0.0,0.0,91,0.00,,,0.00,0,WeatherCatV1.14B232,2013-06-23 09:17:00,
2013-06-23 02:22:00,55.9,53.6,29.78,NNW,340,0.0,0.0,92,0.00,,,0.00,0,WeatherCatV1.14B232,2013-06-23 09:22:00,
2013-06-23 02:27:00,55.9,53.6,29.78,NNW,340,0.0,0.0,92,0.00,,,0.00,0,WeatherCatV1.14B232,2013-06-23 09:27:00,
2013-06-23 02:32:00,55.7,53.4,29.78,NNW,340,0.0,0.0,92,0.00,,,0.00,0,WeatherCatV1.14B232,2013-06-23 09:32:00,
2013-06-23 02:37:00,55.6,53.3,29.78,NNW,340,0.0,0.0,92,0.00,,,0.00,0,WeatherCatV1.14B232,2013-06-23 09:37:00,
2013-06-23 02:42:00,55.4,53.1,29.78,NNW,340,0.0,0.0,92,0.00,,,0.00,0,WeatherCatV1.14B232,2013-06-23 09:42:00,
2013-06-23 02:47:00,55.3,53.0,29.78,NNW,340,0.0,0.0,92,0.00,,,0.00,0,WeatherCatV1.14B232,2013-06-23 09:47:00,
2013-06-23 02:52:00,55.1,52.8,29.78,NNW,340,0.0,0.0,92,0.00,,,0.00,0,WeatherCatV1.14B232,2013-06-23 09:52:00,
2013-06-23 02:57:00,55.0,52.7,29.78,NNW,340,0.0,0.0,92,0.00,,,0.00,0,WeatherCatV1.14B232,2013-06-23 09:57:00,
2013-06-23 03:02:00,54.8,52.5,29.77,NNW,340,0.0,0.0,92,0.00,,,0.00,0,WeatherCatV1.14B232,2013-06-23 10:02:00,
2013-06-23 03:07:00,54.8,52.5,29.77,NNW,340,0.0,0.0,92,0.00,,,0.00,0,WeatherCatV1.14B232,2013-06-23 10:07:00,
2013-06-23 03:12:00,54.7,52.4,29.77,NNW,340,0.0,0.0,92,0.00,,,0.00,0,WeatherCatV1.14B232,2013-06-23 10:12:00,
2013-06-23 03:17:00,54.5,52.2,29.77,NNW,340,0.0,0.0,92,0.00,,,0.00,0,WeatherCatV1.14B232,2013-06-23 10:17:00,
2013-06-23 03:22:00,54.4,52.1,29.77,NNW,340,0.0,0.0,92,0.00,,,0.00,0,WeatherCatV1.14B232,2013-06-23 10:22:00,
2013-06-23 03:27:00,54.4,52.1,29.77,NNW,340,0.0,0.0,92,0.00,,,0.00,0,WeatherCatV1.14B232,2013-06-23 10:27:00,
2013-06-23 03:32:00,54.2,51.9,29.77,NNW,340,0.0,0.0,92,0.00,,,0.00,0,WeatherCatV1.14B232,2013-06-23 10:32:00,
2013-06-23 03:37:00,54.1,51.8,29.77,NNW,340,0.0,0.0,92,0.00,,,0.00,0,WeatherCatV1.14B232,2013-06-23 10:37:00,
2013-06-23 03:42:00,53.9,51.6,29.77,NNW,340,0.0,0.0,92,0.00,,,0.00,0,WeatherCatV1.14B232,2013-06-23 10:42:00,
2013-06-23 03:47:00,53.9,51.6,29.77,NNW,340,0.0,0.0,92,0.00,,,0.00,0,WeatherCatV1.14B232,2013-06-23 10:47:00,
2013-06-23 03:52:00,53.8,51.5,29.77,NNW,340,0.0,0.0,92,0.00,,,0.00,0,WeatherCatV1.14B232,2013-06-23 10:52:00,
2013-06-23 03:57:00,53.6,51.3,29.77,NNW,340,0.0,0.0,92,0.00,,,0.00,0,WeatherCatV1.14B232,2013-06-23 10:57:00,
2013-06-23 04:02:00,53.6,51.3,29.77,NNW,340,0.0,0.0,92,0.00,,,0.00,0,WeatherCatV1.14B232,2013-06-23 11:02:00,
2013-06-23 04:07:00,53.5,51.2,29.77,NNW,340,0.0,0.0,92,0.00,,,0.00,0,WeatherCatV1.14B232,2013-06-23 11:07:00,
2013-06-23 04:12:00,53.5,51.2,29.77,NNW,340,0.0,0.0,92,0.00,,,0.00,0,WeatherCatV1.14B232,2013-06-23 11:12:00,
2013-06-23 04:17:00,53.5,51.5,29.76,NNW,340,0.0,0.0,93,0.00,,,0.00,0,WeatherCatV1.14B232,2013-06-23 11:17:00,
2013-06-23 04:22:00,53.3,51.0,29.76,NNW,340,0.0,0.0,92,0.00,,,0.00,0,WeatherCatV1.14B232,2013-06-23 11:22:00,
2013-06-23 04:27:00,53.3,51.3,29.76,NNW,340,0.0,0.0,93,0.00,,,0.00,0,WeatherCatV1.14B232,2013-06-23 11:27:00,
2013-06-23 04:32:00,53.2,51.2,29.76,NNW,340,0.0,0.0,93,0.00,,,0.00,0,WeatherCatV1.14B232,2013-06-23 11:32:00,
2013-06-23 04:37:00,53.2,51.2,29.76,NNW,340,0.0,0.0,93,0.00,,,0.00,0,WeatherCatV1.14B232,2013-06-23 11:37:00,
2013-06-23 04:42:00,53.2,51.2,29.76,NNW,340,0.0,0.0,93,0.00,,,0.00,0,WeatherCatV1.14B232,2013-06-23 11:42:00,
2013-06-23 04:47:00,53.1,51.1,29.76,NNW,340,0.0,0.0,93,0.00,,,0.00,0,WeatherCatV1.14B232,2013-06-23 11:47:00,
2013-06-23 04:52:00,53.1,51.1,29.76,NNW,340,0.0,0.0,93,0.00,,,0.00,0,WeatherCatV1.14B232,2013-06-23 11:52:00,
2013-06-23 04:57:00,53.1,51.1,29.76,NNW,340,0.0,0.0,93,0.00,,,0.00,0,WeatherCatV1.14B232,2013-06-23 11:57:00,
2013-06-23 05:02:00,52.9,50.9,29.76,NNW,340,0.0,0.0,93,0.00,,,0.00,5,WeatherCatV1.14B232,2013-06-23 12:02:00,
2013-06-23 05:07:00,52.9,50.9,29.76,NNW,340,0.0,0.0,93,0.00,,,0.00,9,WeatherCatV1.14B232,2013-06-23 12:07:00,
2013-06-23 05:12:00,52.9,50.9,29.76,NNW,340,0.0,0.0,93,0.00,,,0.00,11,WeatherCatV1.14B232,2013-06-23 12:12:00,
2013-06-23 05:17:00,52.9,50.9,29.76,NNW,340,0.0,0.0,93,0.00,,,0.00,12,WeatherCatV1.14B232,2013-06-23 12:17:00,
2013-06-23 05:22:00,53.1,51.4,29.76,NNW,340,0.0,0.0,94,0.00,,,0.00,19,WeatherCatV1.14B232,2013-06-23 12:22:00,
2013-06-23 05:27:00,53.1,51.4,29.76,NNW,340,0.0,0.0,94,0.00,,,0.00,23,WeatherCatV1.14B232,2013-06-23 12:27:00,
2013-06-23 05:32:00,53.1,51.4,29.76,NNW,340,0.0,0.0,94,0.00,,,0.00,23,WeatherCatV1.14B232,2013-06-23 12:32:00,
2013-06-23 05:37:00,53.2,51.5,29.76,NNW,340,0.0,0.0,94,0.00,,,0.00,19,WeatherCatV1.14B232,2013-06-23 12:37:00,
2013-06-23 05:42:00,53.2,51.5,29.76,NNW,340,0.0,0.0,94,0.00,,,0.00,18,WeatherCatV1.14B232,2013-06-23 12:42:00,
2013-06-23 05:47:00,53.2,51.5,29.76,NNW,340,0.0,0.0,94,0.00,,,0.00,14,WeatherCatV1.14B232,2013-06-23 12:47:00,
2013-06-23 05:52:00,53.3,51.9,29.76,NNW,340,0.0,0.0,95,0.00,,,0.00,12,WeatherCatV1.14B232,2013-06-23 12:52:00,
2013-06-23 05:57:00,53.3,51.9,29.76,NNW,340,0.0,0.0,95,0.00,,,0.00,9,WeatherCatV1.14B232,2013-06-23 12:57:00,
2013-06-23 06:02:00,53.5,52.1,29.76,NNW,340,0.0,0.0,95,0.00,,,0.00,12,WeatherCatV1.14B232,2013-06-23 13:02:00,
2013-06-23 06:07:00,53.6,52.2,29.76,NNW,340,0.0,0.0,95,0.00,,,0.00,19,WeatherCatV1.14B232,2013-06-23 13:07:00,
2013-06-23 06:12:00,53.8,52.4,29.76,NNW,340,0.0,0.0,95,0.00,,,0.00,23,WeatherCatV1.14B232,2013-06-23 13:12:00,
2013-06-23 06:17:00,53.9,52.5,29.76,NNW,340,0.0,0.0,95,0.00,,,0.00,30,WeatherCatV1.14B232,2013-06-23 13:17:00,
2013-06-23 06:22:00,54.1,52.7,29.76,NNW,340,0.0,0.0,95,0.00,,,0.00,37,WeatherCatV1.14B232,2013-06-23 13:22:00,
2013-06-23 06:27:00,54.2,52.8,29.76,NNW,340,0.0,0.0,95,0.00,,,0.00,47,WeatherCatV1.14B232,2013-06-23 13:27:00,
2013-06-23 06:32:00,54.4,53.0,29.76,NNW,340,0.0,0.0,95,0.00,,,0.00,56,WeatherCatV1.14B232,2013-06-23 13:32:00,
2013-06-23 06:37:00,54.5,53.1,29.76,NNW,340,0.0,0.0,95,0.00,,,0.00,54,WeatherCatV1.14B232,2013-06-23 13:37:00,
2013-06-23 06:42:00,54.7,53.6,29.76,NNW,340,0.0,0.0,96,0.00,,,0.00,51,WeatherCatV1.14B232,2013-06-23 13:42:00,
2013-06-23 06:47:00,54.8,53.7,29.76,NNW,340,0.0,0.0,96,0.00,,,0.00,54,WeatherCatV1.14B232,2013-06-23 13:47:00,
2013-06-23 06:52:00,55.0,53.9,29.76,NNW,340,0.0,0.0,96,0.00,,,0.00,56,WeatherCatV1.14B232,2013-06-23 13:52:00,
2013-06-23 06:57:00,55.3,54.2,29.76,NNW,340,0.0,0.0,96,0.00,,,0.00,54,WeatherCatV1.14B232,2013-06-23 13:57:00,
2013-06-23 07:02:00,55.4,54.3,29.75,NNW,340,0.0,0.0,96,0.00,,,0.00,58,WeatherCatV1.14B232,2013-06-23 14:02:00,
2013-06-23 07:07:00,55.7,54.6,29.75,NNW,340,0.0,0.0,96,0.00,,,0.00,65,WeatherCatV1.14B232,2013-06-23 14:07:00,
2013-06-23 07:12:00,55.9,54.8,29.75,NNW,340,0.0,0.0,96,0.00,,,0.00,69,WeatherCatV1.14B232,2013-06-23 14:12:00,
2013-06-23 07:17:00,56.2,55.1,29.75,NNW,340,0.0,0.0,96,0.00,,,0.00,77,WeatherCatV1.14B232,2013-06-23 14:17:00,
2013-06-23 07:22:00,56.3,55.2,29.75,NNW,340,0.0,0.0,96,0.00,,,0.00,105,WeatherCatV1.14B232,2013-06-23 14:22:00,
2013-06-23 07:27:00,56.5,55.7,29.75,NNW,340,0.0,0.0,97,0.00,,,0.00,148,WeatherCatV1.14B232,2013-06-23 14:27:00,
2013-06-23 07:32:00,56.7,55.9,29.75,NNW,340,0.0,0.0,97,0.00,,,0.00,148,WeatherCatV1.14B232,2013-06-23 14:32:00,
2013-06-23 07:37:00,56.9,56.1,29.75,NNW,340,0.0,0.0,97,0.00,,,0.00,156,WeatherCatV1.14B232,2013-06-23 14:37:00,
2013-06-23 07:42:00,57.2,56.4,29.75,NNW,340,0.0,0.0,97,0.00,,,0.00,214,WeatherCatV1.14B232,2013-06-23 14:42:00,
2013-06-23 07:47:00,57.5,56.7,29.75,NNW,340,0.0,0.0,97,0.00,,,0.00,207,WeatherCatV1.14B232,2013-06-23 14:47:00,
2013-06-23 07:52:00,58.1,57.3,29.75,NNW,340,0.0,0.0,97,0.00,,,0.00,169,WeatherCatV1.14B232,2013-06-23 14:52:00,
2013-06-23 07:57:00,58.6,57.7,29.75,NNW,340,0.0,0.0,97,0.00,,,0.00,146,WeatherCatV1.14B232,2013-06-23 14:57:00,
2013-06-23 08:02:00,58.9,58.0,29.75,NNW,340,0.0,0.0,97,0.00,,,0.00,165,WeatherCatV1.14B232,2013-06-23 15:02:00,
2013-06-23 08:07:00,59.0,58.1,29.75,NNW,340,0.0,0.0,97,0.00,,,0.00,179,WeatherCatV1.14B232,2013-06-23 15:07:00,
2013-06-23 08:12:00,59.3,58.4,29.75,NNW,340,0.0,0.0,97,0.00,,,0.00,169,WeatherCatV1.14B232,2013-06-23 15:12:00,
2013-06-23 08:17:00,59.3,58.2,29.75,NNW,340,0.0,1.0,96,0.00,,,0.00,153,WeatherCatV1.14B232,2013-06-23 15:17:00,
2013-06-23 08:22:00,59.5,58.4,29.75,NNW,340,0.0,0.0,96,0.00,,,0.00,155,WeatherCatV1.14B232,2013-06-23 15:22:00,
2013-06-23 08:27:00,59.5,58.1,29.75,NNW,340,0.0,0.0,95,0.00,,,0.00,169,WeatherCatV1.14B232,2013-06-23 15:27:00,
2013-06-23 08:32:00,59.8,58.4,29.75,NNW,340,0.0,0.0,95,0.00,,,0.00,183,WeatherCatV1.14B232,2013-06-23 15:32:00,
2013-06-23 08:37:00,59.9,58.2,29.75,NNW,340,0.0,0.0,94,0.00,,,0.00,178,WeatherCatV1.14B232,2013-06-23 15:37:00,
2013-06-23 08:42:00,60.2,58.2,29.75,NNW,340,0.0,0.0,93,0.00,,,0.00,195,WeatherCatV1.14B232,2013-06-23 15:42:00,
2013-06-23 08:47:00,60.5,58.2,29.75,NNW,340,0.0,0.0,92,0.00,,,0.00,257,WeatherCatV1.14B232,2013-06-23 15:47:00,
2013-06-23 08:52:00,60.9,57.9,29.75,NNW,340,0.0,0.0,90,0.00,,,0.00,283,WeatherCatV1.14B232,2013-06-23 15:52:00,
2013-06-23 08:57:00,61.8,57.6,29.75,NNW,340,0.0,0.0,86,0.00,,,0.00,271,WeatherCatV1.14B232,2013-06-23 15:57:00,
2013-06-23 09:02:00,62.4,58.2,29.75,NNW,340,0.0,0.0,86,0.00,,,0.00,304,WeatherCatV1.14B232,2013-06-23 16:02:00,
2013-06-23 09:07:00,62.6,57.7,29.75,NNW,340,0.0,0.0,84,0.00,,,0.00,355,WeatherCatV1.14B232,2013-06-23 16:07:00,
2013-06-23 09:12:00,63.2,59.3,29.75,NNW,340,0.0,0.0,87,0.00,,,0.00,318,WeatherCatV1.14B232,2013-06-23 16:12:00,
2013-06-23 09:17:00,63.7,59.1,29.75,NNW,340,0.0,0.0,85,0.00,,,0.00,343,WeatherCatV1.14B232,2013-06-23 16:17:00,
2013-06-23 09:22:00,63.7,58.1,29.75,NNW,340,0.0,0.0,82,0.00,,,0.00,274,WeatherCatV1.14B232,2013-06-23 16:22:00,
2013-06-23 09:27:00,63.7,57.8,29.75,ENE,61,0.0,3.0,81,0.00,,,0.00,262,WeatherCatV1.14B232,2013-06-23 16:27:00,
2013-06-23 09:32:00,63.7,58.4,29.75,ENE,61,0.0,0.0,83,0.00,,,0.00,265,WeatherCatV1.14B232,2013-06-23 16:32:00,
2013-06-23 09:37:00,63.9,59.0,29.75,ENE,61,0.0,0.0,84,0.00,,,0.00,301,WeatherCatV1.14B232,2013-06-23 16:37:00,
2013-06-23 09:42:00,64.2,58.9,29.75,ENE,61,0.0,0.0,83,0.00,,,0.00,329,WeatherCatV1.14B232,2013-06-23 16:42:00,
2013-06-23 09:47:00,64.7,58.0,29.74,ENE,61,0.0,1.0,79,0.00,,,0.00,327,WeatherCatV1.14B232,2013-06-23 16:47:00,
2013-06-23 09:52:00,64.7,58.4,29.74,ENE,61,0.0,0.0,80,0.00,,,0.00,308,WeatherCatV1.14B232,2013-06-23 16:52:00,
2013-06-23 09:57:00,64.7,58.7,29.74,ENE,65,2.0,2.0,81,0.00,,,0.00,279,WeatherCatV1.14B232,2013-06-23 16:57:00,
2013-06-23 10:00:00,64.5,58.5,29.74,ENE,66,0.0,1.0,81,0.00,,,0.00,281,WeatherCatV1.14B232,2013-06-23 17:00:00,
2013-06-23 10:01:00,64.5,58.5,29.74,ENE,66,0.0,0.0,81,0.00,,,0.00,283,WeatherCatV1.14B232,2013-06-23 17:01:00,
2013-06-23 10:06:00,64.5,58.2,29.74,ENE,65,0.0,0.0,80,0.00,,,0.00,309,WeatherCatV1.14B232,2013-06-23 17:06:00,
2013-06-23 10:11:00,64.8,58.1,29.74,ENE,65,1.0,1.0,79,0.00,,,0.00,327,WeatherCatV1.14B232,2013-06-23 17:11:00,
2013-06-23 10:16:00,65.0,58.0,29.74,ENE,67,1.0,1.0,78,0.00,,,0.00,353,WeatherCatV1.14B232,2013-06-23 17:16:00,
2013-06-23 10:21:00,65.0,58.0,29.74,ENE,75,0.0,1.0,78,0.00,,,0.00,390,WeatherCatV1.14B232,2013-06-23 17:21:00,
2013-06-23 10:26:00,66.1,59.0,29.74,East,96,1.0,3.0,78,0.00,,,0.00,439,WeatherCatV1.14B232,2013-06-23 17:26:00,
2013-06-23 10:31:00,66.1,58.3,29.73,East,96,1.0,2.0,76,0.00,,,0.00,396,WeatherCatV1.14B232,2013-06-23 17:31:00,
2013-06-23 10:36:00,66.9,59.4,29.73,East,96,0.0,0.0,77,0.00,,,0.00,362,WeatherCatV1.14B232,2013-06-23 17:36:00,
2013-06-23 10:41:00,67.6,59.0,29.73,East,96,0.0,0.0,74,0.00,,,0.00,320,WeatherCatV1.14B232,2013-06-23 17:41:00,
2013-06-23 10:46:00,66.9,59.4,29.73,East,96,0.0,0.0,77,0.00,,,0.00,278,WeatherCatV1.14B232,2013-06-23 17:46:00,
2013-06-23 10:51:00,66.4,59.7,29.73,East,96,1.0,2.0,79,0.00,,,0.00,250,WeatherCatV1.14B232,2013-06-23 17:51:00,
2013-06-23 10:56:00,66.8,58.6,29.73,East,96,0.0,1.0,75,0.00,,,0.00,251,WeatherCatV1.14B232,2013-06-23 17:56:00,
2013-06-23 11:01:00,66.9,59.1,29.73,East,96,0.0,1.0,76,0.00,,,0.00,255,WeatherCatV1.14B232,2013-06-23 18:01:00,
2013-06-23 11:06:00,66.3,58.1,29.73,East,96,0.0,0.0,75,0.00,,,0.00,255,WeatherCatV1.14B232,2013-06-23 18:06:00,
2013-06-23 11:11:00,66.6,59.5,29.73,East,96,0.0,0.0,78,0.00,,,0.00,243,WeatherCatV1.14B232,2013-06-23 18:11:00,
2013-06-23 11:16:00,67.3,60.6,29.72,East,96,0.0,0.0,79,0.00,,,0.00,260,WeatherCatV1.14B232,2013-06-23 18:16:00,
2013-06-23 11:21:00,66.9,60.2,29.72,East,96,0.0,0.0,79,0.00,,,0.00,299,WeatherCatV1.14B232,2013-06-23 18:21:00,
2013-06-23 11:26:00,66.6,59.9,29.72,NE,42,0.0,0.0,79,0.00,,,0.00,294,WeatherCatV1.14B232,2013-06-23 18:26:00,
2013-06-23 11:31:00,66.8,59.0,29.72,North,0,0.0,2.0,76,0.00,,,0.00,304,WeatherCatV1.14B232,2013-06-23 18:31:00,
2013-06-23 11:36:00,67.1,59.3,29.72,North,0,0.0,1.0,76,0.00,,,0.00,378,WeatherCatV1.14B232,2013-06-23 18:36:00,
2013-06-23 11:41:00,67.3,58.7,29.72,North,350,2.0,4.0,74,0.00,,,0.00,396,WeatherCatV1.14B232,2013-06-23 18:41:00,
2013-06-23 11:46:00,67.3,59.5,29.72,NW,316,1.0,2.0,76,0.00,,,0.00,418,WeatherCatV1.14B232,2013-06-23 18:46:00,
2013-06-23 11:51:00,67.8,59.9,29.72,West,271,0.0,1.0,76,0.00,,,0.00,508,WeatherCatV1.14B232,2013-06-23 18:51:00,
2013-06-23 11:56:00,68.6,60.0,29.72,West,271,0.0,1.0,74,0.00,,,0.00,512,WeatherCatV1.14B232,2013-06-23 18:56:00,
2013-06-23 12:01:00,68.4,59.0,29.71,NW,322,1.0,4.0,72,0.00,,,0.00,415,WeatherCatV1.14B232,2013-06-23 19:01:00,
2013-06-23 12:06:00,68.3,60.1,29.71,NW,315,0.0,3.0,75,0.00,,,0.00,385,WeatherCatV1.14B232,2013-06-23 19:06:00,
2013-06-23 12:11:00,68.3,59.7,29.71,NW,315,0.0,2.0,74,0.00,,,0.00,353,WeatherCatV1.14B232,2013-06-23 19:11:00,
2013-06-23 12:16:00,68.4,59.8,29.71,NW,315,0.0,0.0,74,0.00,,,0.00,287,WeatherCatV1.14B232,2013-06-23 19:16:00,
2013-06-23 12:21:00,68.3,59.7,29.71,NW,321,0.0,3.0,74,0.00,,,0.00,257,WeatherCatV1.14B232,2013-06-23 19:21:00,
2013-06-23 12:26:00,67.9,60.0,29.71,NW,323,1.0,1.0,76,0.00,,,0.00,257,WeatherCatV1.14B232,2013-06-23 19:26:00,
2013-06-23 12:31:00,68.3,60.1,29.70,NW,322,0.0,3.0,75,0.00,,,0.00,338,WeatherCatV1.14B232,2013-06-23 19:31:00,
2013-06-23 12:36:00,67.9,59.3,29.70,NNW,327,3.0,4.0,74,0.00,,,0.00,392,WeatherCatV1.14B232,2013-06-23 19:36:00,
2013-06-23 12:41:00,67.6,59.0,29.70,NNW,327,1.0,2.0,74,0.00,,,0.00,352,WeatherCatV1.14B232,2013-06-23 19:41:00,
2013-06-23 12:46:00,68.3,60.4,29.70,NNW,327,0.0,0.0,76,0.00,,,0.00,287,WeatherCatV1.14B232,2013-06-23 19:46:00,
2013-06-23 12:51:00,68.4,59.4,29.70,NNW,327,1.0,3.0,73,0.00,,,0.00,260,WeatherCatV1.14B232,2013-06-23 19:51:00,
2013-06-23 12:56:00,67.9,58.5,29.70,NNW,331,2.0,2.0,72,0.00,,,0.00,267,WeatherCatV1.14B232,2013-06-23 19:56:00,
2013-06-23 13:01:00,68.4,59.8,29.70,NNW,331,0.0,0.0,74,0.00,,,0.00,283,WeatherCatV1.14B232,2013-06-23 20:01:00,
2013-06-23 13:06:00,68.6,59.2,29.70,NE,35,0.0,0.0,72,0.00,,,0.00,283,WeatherCatV1.14B232,2013-06-23 20:06:00,
2013-06-23 13:11:00,68.6,60.0,29.70,NNE,30,0.0,2.0,74,0.00,,,0.00,316,WeatherCatV1.14B232,2013-06-23 20:11:00,
2013-06-23 13:16:00,68.3,60.4,29.69,NNW,339,3.0,3.0,76,0.00,,,0.00,403,WeatherCatV1.14B232,2013-06-23 20:16:00,
2013-06-23 13:21:00,67.8,59.6,29.69,NNW,328,0.0,3.0,75,0.00,,,0.00,443,WeatherCatV1.14B232,2013-06-23 20:21:00,
2013-06-23 13:26:00,67.9,58.9,29.69,NW,321,0.0,5.0,73,0.00,,,0.00,383,WeatherCatV1.14B232,2013-06-23 20:26:00,
2013-06-23 13:31:00,67.8,59.2,29.69,NW,315,3.0,4.0,74,0.00,,,0.00,325,WeatherCatV1.14B232,2013-06-23 20:31:00,
2013-06-23 13:36:00,67.9,59.3,29.69,NW,305,0.0,1.0,74,0.00,,,0.00,274,WeatherCatV1.14B232,2013-06-23 20:36:00,
2013-06-23 13:41:00,68.3,59.7,29.69,NW,305,0.0,1.0,74,0.00,,,0.00,276,WeatherCatV1.14B232,2013-06-23 20:41:00,
2013-06-23 13:46:00,68.3,60.4,29.68,NW,305,1.0,2.0,76,0.00,,,0.00,267,WeatherCatV1.14B232,2013-06-23 20:46:00,
2013-06-23 13:51:00,67.9,58.5,29.68,NW,314,2.0,3.0,72,0.00,,,0.00,257,WeatherCatV1.14B232,2013-06-23 20:51:00,
2013-06-23 13:56:00,67.8,59.2,29.68,NW,314,0.0,0.0,74,0.00,,,0.00,244,WeatherCatV1.14B232,2013-06-23 20:56:00,
2013-06-23 14:01:00,67.6,58.2,29.68,NW,318,1.0,3.0,72,0.00,,,0.00,234,WeatherCatV1.14B232,2013-06-23 21:01:00,
2013-06-23 14:06:00,67.8,59.6,29.68,NW,318,0.0,1.0,75,0.00,,,0.00,211,WeatherCatV1.14B232,2013-06-23 21:06:00,
2013-06-23 14:11:00,67.9,60.0,29.68,NW,321,2.0,2.0,76,0.00,,,0.00,209,WeatherCatV1.14B232,2013-06-23 21:11:00,
2013-06-23 14:16:00,67.8,58.8,29.68,NW,321,0.0,3.0,73,0.00,,,0.00,185,WeatherCatV1.14B232,2013-06-23 21:16:00,
2013-06-23 14:21:00,67.8,58.4,29.68,NW,321,0.0,0.0,72,0.00,,,0.00,169,WeatherCatV1.14B232,2013-06-23 21:21:00,
2013-06-23 14:26:00,67.9,59.3,29.68,NW,321,0.0,0.0,74,0.00,,,0.00,172,WeatherCatV1.14B232,2013-06-23 21:26:00,
2013-06-23 14:31:00,68.1,59.5,29.68,NW,321,0.0,1.0,74,0.00,,,0.00,206,WeatherCatV1.14B232,2013-06-23 21:31:00,
2013-06-23 14:36:00,68.1,59.5,29.68,NW,321,0.0,0.0,74,0.00,,,0.00,221,WeatherCatV1.14B232,2013-06-23 21:36:00,
2013-06-23 14:41:00,68.1,59.1,29.68,NW,321,0.0,1.0,73,0.00,,,0.00,229,WeatherCatV1.14B232,2013-06-23 21:41:00,
2013-06-23 14:46:00,68.1,58.7,29.68,NW,321,0.0,1.0,72,0.00,,,0.00,230,WeatherCatV1.14B232,2013-06-23 21:46:00,
2013-06-23 14:51:00,68.1,58.7,29.68,NW,321,0.0,1.0,72,0.00,,,0.00,251,WeatherCatV1.14B232,2013-06-23 21:51:00,
2013-06-23 14:56:00,68.3,60.1,29.68,NW,321,0.0,0.0,75,0.00,,,0.00,287,WeatherCatV1.14B232,2013-06-23 21:56:00,
2013-06-23 15:01:00,68.4,59.8,29.68,NW,321,0.0,0.0,74,0.00,,,0.00,287,WeatherCatV1.14B232,2013-06-23 22:01:00,
2013-06-23 15:06:00,68.4,59.0,29.68,NW,321,0.0,1.0,72,0.00,,,0.00,274,WeatherCatV1.14B232,2013-06-23 22:06:00,
2013-06-23 15:11:00,68.3,56.5,29.68,NW,321,0.0,0.0,66,0.00,,,0.00,274,WeatherCatV1.14B232,2013-06-23 22:11:00,
2013-06-23 15:16:00,68.4,58.6,29.67,NW,321,0.0,1.0,71,0.00,,,0.00,279,WeatherCatV1.14B232,2013-06-23 22:16:00,
2013-06-23 15:21:00,68.4,57.8,29.67,NW,321,0.0,1.0,69,0.00,,,0.00,302,WeatherCatV1.14B232,2013-06-23 22:21:00,
2013-06-23 15:26:00,68.4,58.6,29.67,NW,321,0.0,0.0,71,0.00,,,0.00,330,WeatherCatV1.14B232,2013-06-23 22:26:00,
2013-06-23 15:31:00,68.6,60.3,29.67,NW,321,0.0,0.0,75,0.00,,,0.00,318,WeatherCatV1.14B232,2013-06-23 22:31:00,
2013-06-23 15:36:00,68.8,59.0,29.67,NW,321,0.0,2.0,71,0.00,,,0.00,327,WeatherCatV1.14B232,2013-06-23 22:36:00,
2013-06-23 15:41:00,68.9,59.5,29.67,NW,321,0.0,0.0,72,0.00,,,0.00,276,WeatherCatV1.14B232,2013-06-23 22:41:00,
2013-06-23 15:46:00,69.1,59.7,29.66,NW,321,0.0,0.0,72,0.00,,,0.00,207,WeatherCatV1.14B232,2013-06-23 22:46:00,
2013-06-23 15:51:00,69.3,60.3,29.66,NW,322,0.0,1.0,73,0.00,,,0.00,174,WeatherCatV1.14B232,2013-06-23 22:51:00,
2013-06-23 15:56:00,69.1,59.7,29.66,NW,322,0.0,0.0,72,0.00,,,0.00,178,WeatherCatV1.14B232,2013-06-23 22:56:00,
2013-06-23 16:01:00,69.1,60.1,29.66,NW,322,0.0,0.0,73,0.00,,,0.00,171,WeatherCatV1.14B232,2013-06-23 23:01:00,
2013-06-23 16:06:00,69.1,60.5,29.66,NW,322,0.0,0.0,74,0.00,,,0.00,190,WeatherCatV1.14B232,2013-06-23 23:06:00,
2013-06-23 16:11:00,69.1,60.8,29.66,NW,322,0.0,0.0,75,0.00,,,0.00,209,WeatherCatV1.14B232,2013-06-23 23:11:00,
2013-06-23 16:16:00,69.1,61.2,29.65,NW,322,0.0,0.0,76,0.00,,,0.00,200,WeatherCatV1.14B232,2013-06-23 23:16:00,
2013-06-23 16:21:00,69.1,60.8,29.65,NW,322,0.0,1.0,75,0.00,,,0.00,207,WeatherCatV1.14B232,2013-06-23 23:21:00,
2013-06-23 16:26:00,69.1,60.5,29.65,NW,322,0.0,0.0,74,0.00,,,0.00,197,WeatherCatV1.14B232,2013-06-23 23:26:00,
2013-06-23 16:31:00,69.1,60.5,29.65,NW,322,0.0,0.0,74,0.00,,,0.00,165,WeatherCatV1.14B232,2013-06-23 23:31:00,
2013-06-23 16:36:00,69.1,60.1,29.65,NW,322,0.0,0.0,73,0.00,,,0.00,169,WeatherCatV1.14B232,2013-06-23 23:36:00,
2013-06-23 16:41:00,68.9,58.3,29.65,NW,322,0.0,2.0,69,0.00,,,0.00,185,WeatherCatV1.14B232,2013-06-23 23:41:00,
2013-06-23 16:46:00,68.8,58.6,29.64,NW,322,0.0,1.0,70,0.00,,,0.00,163,WeatherCatV1.14B232,2013-06-23 23:46:00,
2013-06-23 16:51:00,68.8,58.6,29.64,NW,322,0.0,0.0,70,0.00,,,0.00,141,WeatherCatV1.14B232,2013-06-23 23:51:00,
2013-06-23 16:56:00,68.8,59.0,29.64,NW,322,0.0,0.0,71,0.00,,,0.00,142,WeatherCatV1.14B232,2013-06-23 23:56:00,
2013-06-23 17:01:00,68.8,59.4,29.64,NW,322,0.0,0.0,72,0.00,,,0.00,165,WeatherCatV1.14B232,2013-06-24 00:01:00,
2013-06-23 17:06:00,68.8,59.4,29.64,NW,322,0.0,0.0,72,0.00,,,0.00,176,WeatherCatV1.14B232,2013-06-24 00:06:00,
2013-06-23 17:11:00,68.8,59.4,29.64,NW,322,0.0,0.0,72,0.00,,,0.00,160,WeatherCatV1.14B232,2013-06-24 00:11:00,
2013-06-23 17:16:00,68.8,59.4,29.64,NW,322,0.0,0.0,72,0.00,,,0.00,160,WeatherCatV1.14B232,2013-06-24 00:16:00,
2013-06-23 17:21:00,68.8,59.4,29.64,NW,322,0.0,0.0,72,0.00,,,0.00,160,WeatherCatV1.14B232,2013-06-24 00:21:00,
2013-06-23 17:26:00,68.9,59.5,29.64,NW,322,0.0,1.0,72,0.00,,,0.00,137,WeatherCatV1.14B232,2013-06-24 00:26:00,
2013-06-23 17:31:00,68.9,58.3,29.63,NW,322,0.0,2.0,69,0.00,,,0.00,134,WeatherCatV1.14B232,2013-06-24 00:31:00,
2013-06-23 17:36:00,68.8,58.2,29.63,NW,322,0.0,1.0,69,0.00,,,0.00,135,WeatherCatV1.14B232,2013-06-24 00:36:00,
2013-06-23 17:41:00,68.6,58.0,29.63,NW,322,0.0,0.0,69,0.00,,,0.00,130,WeatherCatV1.14B232,2013-06-24 00:41:00,
2013-06-23 17:46:00,68.8,59.0,29.62,NW,322,0.0,0.0,71,0.00,,,0.00,113,WeatherCatV1.14B232,2013-06-24 00:46:00,
2013-06-23 17:51:00,68.9,59.5,29.62,NW,322,0.0,0.0,72,0.00,,,0.00,91,WeatherCatV1.14B232,2013-06-24 00:51:00,
2013-06-23 17:56:00,68.9,58.7,29.62,NW,322,0.0,0.0,70,0.00,,,0.00,100,WeatherCatV1.14B232,2013-06-24 00:56:00,
2013-06-23 18:01:00,69.1,59.3,29.62,NW,322,0.0,0.0,71,0.00,,,0.00,109,WeatherCatV1.14B232,2013-06-24 01:01:00,
2013-06-23 18:06:00,69.3,60.3,29.62,NW,322,0.0,0.0,73,0.00,,,0.00,127,WeatherCatV1.14B232,2013-06-24 01:06:00,
2013-06-23 18:11:00,69.3,60.3,29.62,NW,322,0.0,0.0,73,0.00,,,0.00,114,WeatherCatV1.14B232,2013-06-24 01:11:00,
2013-06-23 18:16:00,69.4,60.7,29.61,NW,322,0.0,0.0,74,0.00,,,0.00,97,WeatherCatV1.14B232,2013-06-24 01:16:00,
2013-06-23 18:21:00,69.4,60.7,29.61,NW,322,0.0,0.0,74,0.00,,,0.00,83,WeatherCatV1.14B232,2013-06-24 01:21:00,
2013-06-23 18:26:00,69.3,60.3,29.61,NW,322,0.0,0.0,73,0.00,,,0.00,76,WeatherCatV1.14B232,2013-06-24 01:26:00,
2013-06-23 18:31:00,69.1,59.7,29.61,NW,322,0.0,0.0,72,0.00,,,0.00,76,WeatherCatV1.14B232,2013-06-24 01:31:00,
2013-06-23 18:36:00,69.1,60.5,29.61,NW,322,0.0,0.0,74,0.00,,,0.00,84,WeatherCatV1.14B232,2013-06-24 01:36:00,
2013-06-23 18:41:00,69.1,61.9,29.61,NW,322,0.0,0.0,78,0.00,,,0.00,79,WeatherCatV1.14B232,2013-06-24 01:41:00,
2013-06-23 18:46:00,68.9,61.4,29.61,NW,322,0.0,0.0,77,0.00,,,0.00,74,WeatherCatV1.14B232,2013-06-24 01:46:00,
2013-06-23 18:51:00,68.8,60.9,29.61,NW,322,0.0,0.0,76,0.00,,,0.00,70,WeatherCatV1.14B232,2013-06-24 01:51:00,
2013-06-23 18:56:00,68.6,60.7,29.61,NW,322,0.0,0.0,76,0.00,,,0.00,65,WeatherCatV1.14B232,2013-06-24 01:56:00,
2013-06-23 19:01:00,68.6,60.7,29.60,NW,322,0.0,0.0,76,0.00,,,0.00,60,WeatherCatV1.14B232,2013-06-24 02:01:00,
2013-06-23 19:06:00,68.4,60.9,29.60,NW,322,0.0,0.0,77,0.00,,,0.00,63,WeatherCatV1.14B232,2013-06-24 02:06:00,
2013-06-23 19:11:00,68.3,60.8,29.60,NW,322,0.0,0.0,77,0.00,,,0.00,67,WeatherCatV1.14B232,2013-06-24 02:11:00,
2013-06-23 19:16:00,68.3,61.2,29.60,NW,322,0.0,0.0,78,0.00,,,0.00,60,WeatherCatV1.14B232,2013-06-24 02:16:00,
2013-06-23 19:21:00,68.1,61.3,29.60,NW,322,0.0,0.0,79,0.00,,,0.00,51,WeatherCatV1.14B232,2013-06-24 02:21:00,
2013-06-23 19:27:00,68.1,61.3,29.60,NW,322,0.0,0.0,79,0.00,,,0.00,47,WeatherCatV1.14B232,2013-06-24 02:27:00,
2013-06-23 19:32:00,67.9,61.1,29.60,NW,322,0.0,0.0,79,0.00,,,0.00,42,WeatherCatV1.14B232,2013-06-24 02:32:00,
2013-06-23 19:37:00,67.8,61.0,29.60,NW,322,0.0,0.0,79,0.00,,,0.00,40,WeatherCatV1.14B232,2013-06-24 02:37:00,
2013-06-23 19:42:00,67.6,61.2,29.60,NW,322,0.0,0.0,80,0.00,,,0.00,37,WeatherCatV1.14B232,2013-06-24 02:42:00,
2013-06-23 19:47:00,67.6,61.9,29.60,NW,322,0.0,0.0,82,0.00,,,0.00,33,WeatherCatV1.14B232,2013-06-24 02:47:00,
2013-06-23 19:52:00,67.4,61.7,29.60,NW,322,0.0,0.0,82,0.00,,,0.00,33,WeatherCatV1.14B232,2013-06-24 02:52:00,
2013-06-23 19:57:00,67.4,62.0,29.60,NW,322,0.0,0.0,83,0.00,,,0.00,26,WeatherCatV1.14B232,2013-06-24 02:57:00,
2013-06-23 20:02:00,67.3,62.3,29.59,NW,322,0.0,0.0,84,0.00,,,0.00,23,WeatherCatV1.14B232,2013-06-24 03:02:00,
2013-06-23 20:07:00,67.1,61.8,29.59,NW,322,0.0,0.0,83,0.00,,,0.00,19,WeatherCatV1.14B232,2013-06-24 03:07:00,
2013-06-23 20:12:00,66.9,61.6,29.59,NW,322,0.0,0.0,83,0.00,,,0.00,18,WeatherCatV1.14B232,2013-06-24 03:12:00,
2013-06-23 20:17:00,66.9,61.9,29.59,NW,322,0.0,0.0,84,0.00,,,0.00,16,WeatherCatV1.14B232,2013-06-24 03:17:00,
2013-06-23 20:22:00,66.8,61.8,29.59,NW,322,0.0,0.0,84,0.00,,,0.00,12,WeatherCatV1.14B232,2013-06-24 03:22:00,
2013-06-23 20:27:00,66.6,61.9,29.59,NW,322,0.0,0.0,85,0.00,,,0.00,7,WeatherCatV1.14B232,2013-06-24 03:27:00,
2013-06-23 20:32:00,66.4,61.7,29.59,NW,322,0.0,0.0,85,0.00,,,0.00,5,WeatherCatV1.14B232,2013-06-24 03:32:00,
2013-06-23 20:37:00,66.3,61.6,29.59,NW,322,0.0,0.0,85,0.00,,,0.00,5,WeatherCatV1.14B232,2013-06-24 03:37:00,
2013-06-23 20:42:00,66.1,61.8,29.59,NW,322,0.0,0.0,86,0.00,,,0.00,5,WeatherCatV1.14B232,2013-06-24 03:42:00,
2013-06-23 20:47:00,66.0,61.7,29.58,NW,322,0.0,0.0,86,0.00,,,0.00,7,WeatherCatV1.14B232,2013-06-24 03:47:00,
2013-06-23 20:52:00,66.0,61.7,29.58,NW,322,0.0,0.0,86,0.00,,,0.00,5,WeatherCatV1.14B232,2013-06-24 03:52:00,
2013-06-23 20:57:00,65.8,61.5,29.58,NW,322,0.0,0.0,86,0.00,,,0.00,5,WeatherCatV1.14B232,2013-06-24 03:57:00,
2013-06-23 21:01:00,65.6,61.3,29.58,NW,322,0.0,0.0,86,0.00,,,0.00,0,WeatherCatV1.14B232,2013-06-24 04:01:00,
2013-06-23 21:06:00,65.5,61.2,29.58,NW,322,0.0,0.0,86,0.00,,,0.00,0,WeatherCatV1.14B232,2013-06-24 04:06:00,
2013-06-23 21:11:00,65.3,61.3,29.58,NW,322,0.0,0.0,87,0.00,,,0.00,0,WeatherCatV1.14B232,2013-06-24 04:11:00,
2013-06-23 21:16:00,65.2,61.2,29.58,NW,322,0.0,0.0,87,0.00,,,0.00,0,WeatherCatV1.14B232,2013-06-24 04:16:00,
2013-06-23 21:21:00,65.2,61.2,29.58,NW,322,0.0,0.0,87,0.00,,,0.00,0,WeatherCatV1.14B232,2013-06-24 04:21:00,
2013-06-23 21:26:00,65.0,61.0,29.58,NW,322,0.0,0.0,87,0.00,,,0.00,0,WeatherCatV1.14B232,2013-06-24 04:26:00,
2013-06-23 21:31:00,64.8,60.8,29.57,NW,322,0.0,0.0,87,0.00,,,0.00,0,WeatherCatV1.14B232,2013-06-24 04:31:00,
2013-06-23 21:36:00,64.7,61.1,29.57,NW,322,0.0,0.0,88,0.00,,,0.00,0,WeatherCatV1.14B232,2013-06-24 04:36:00,
2013-06-23 21:41:00,64.5,60.9,29.57,NW,322,0.0,0.0,88,0.00,,,0.00,0,WeatherCatV1.14B232,2013-06-24 04:41:00,
2013-06-23 21:46:00,64.3,60.7,29.57,NW,322,0.0,0.0,88,0.00,,,0.00,0,WeatherCatV1.14B232,2013-06-24 04:46:00,
2013-06-23 21:51:00,64.2,60.6,29.57,NW,322,0.0,0.0,88,0.00,,,0.00,0,WeatherCatV1.14B232,2013-06-24 04:51:00,
2013-06-23 21:56:00,64.2,60.6,29.57,NW,322,0.0,0.0,88,0.00,,,0.00,0,WeatherCatV1.14B232,2013-06-24 04:56:00,
2013-06-23 22:01:00,64.0,60.7,29.57,NW,322,0.0,0.0,89,0.00,,,0.00,0,WeatherCatV1.14B232,2013-06-24 05:01:00,
2013-06-23 22:06:00,63.9,60.6,29.57,NW,322,0.0,0.0,89,0.00,,,0.00,0,WeatherCatV1.14B232,2013-06-24 05:06:00,
2013-06-23 22:11:00,63.9,60.6,29.57,NW,322,0.0,0.0,89,0.00,,,0.00,0,WeatherCatV1.14B232,2013-06-24 05:11:00,
2013-06-23 22:16:00,63.7,60.7,29.56,NW,322,0.0,0.0,90,0.00,,,0.00,0,WeatherCatV1.14B232,2013-06-24 05:16:00,
2013-06-23 22:21:00,63.7,60.7,29.56,NW,322,0.0,0.0,90,0.00,,,0.00,0,WeatherCatV1.14B232,2013-06-24 05:21:00,
2013-06-23 22:26:00,63.5,60.5,29.56,NW,322,0.0,0.0,90,0.00,,,0.00,0,WeatherCatV1.14B232,2013-06-24 05:26:00,
2013-06-23 22:31:00,63.4,60.4,29.56,NW,322,0.0,0.0,90,0.00,,,0.00,0,WeatherCatV1.14B232,2013-06-24 05:31:00,
2013-06-23 22:36:00,63.4,60.4,29.56,NW,322,0.0,0.0,90,0.00,,,0.00,0,WeatherCatV1.14B232,2013-06-24 05:36:00,
2013-06-23 22:41:00,63.2,60.5,29.56,NW,322,0.0,0.0,91,0.00,,,0.00,0,WeatherCatV1.14B232,2013-06-24 05:41:00,
2013-06-23 22:46:00,63.2,60.5,29.56,NW,322,0.0,0.0,91,0.00,,,0.00,0,WeatherCatV1.14B232,2013-06-24 05:46:00,
2013-06-23 22:51:00,63.2,60.5,29.56,NW,322,0.0,0.0,91,0.00,,,0.00,0,WeatherCatV1.14B232,2013-06-24 05:51:00,
2013-06-23 22:56:00,63.1,60.4,29.56,NW,322,0.0,0.0,91,0.00,,,0.00,0,WeatherCatV1.14B232,2013-06-24 05:56:00,
2013-06-23 23:01:00,63.1,60.7,29.56,NW,322,0.0,0.0,92,0.00,,,0.00,0,WeatherCatV1.14B232,2013-06-24 06:01:00,
2013-06-23 23:06:00,62.9,60.5,29.56,NW,322,0.0,0.0,92,0.00,,,0.00,0,WeatherCatV1.14B232,2013-06-24 06:06:00,
2013-06-23 23:11:00,62.7,60.3,29.56,NW,322,0.0,0.0,92,0.00,,,0.00,0,WeatherCatV1.14B232,2013-06-24 06:11:00,
2013-06-23 23:16:00,62.7,60.3,29.56,NW,322,0.0,0.0,92,0.00,,,0.00,0,WeatherCatV1.14B232,2013-06-24 06:16:00,
2013-06-23 23:21:00,62.6,60.2,29.56,NW,322,0.0,0.0,92,0.00,,,0.00,0,WeatherCatV1.14B232,2013-06-24 06:21:00,
2013-06-23 23:26:00,62.4,60.0,29.56,NW,322,0.0,0.0,92,0.00,,,0.00,0,WeatherCatV1.14B232,2013-06-24 06:26:00,
2013-06-23 23:31:00,62.4,60.0,29.56,NW,322,0.0,0.0,92,0.00,,,0.00,0,WeatherCatV1.14B232,2013-06-24 06:31:00,
2013-06-23 23:36:00,62.4,60.0,29.56,NW,322,0.0,0.0,92,0.00,,,0.00,0,WeatherCatV1.14B232,2013-06-24 06:36:00,
2013-06-23 23:41:00,62.3,59.9,29.56,NW,322,0.0,0.0,92,0.00,,,0.01,0,WeatherCatV1.14B232,2013-06-24 06:41:00,
2013-06-23 23:46:00,62.3,60.2,29.56,NW,322,0.0,0.0,93,0.00,,,0.01,0,WeatherCatV1.14B232,2013-06-24 06:46:00,
2013-06-23 23:51:00,62.1,60.0,29.56,NW,322,0.0,0.0,93,0.00,,,0.01,0,WeatherCatV1.14B232,2013-06-24 06:51:00,
2013-06-23 23:56:00,62.1,60.0,29.56,NW,322,0.0,0.0,93,0.00,,,0.01,0,WeatherCatV1.14B232,2013-06-24 06:56:00,